createdAt,value
2022-07-26T00:00:51.208Z,5.93
2022-07-26T00:05:56.355Z,5.30
2022-07-26T00:11:00.038Z,4.63
2022-07-26T00:16:11.229Z,4.68
2022-07-26T00:21:16.176Z,4.65
2022-07-26T00:26:19.913Z,4.70
2022-07-26T00:31:23.997Z,4.50
2022-07-26T00:36:29.840Z,4.45
2022-07-26T00:41:33.521Z,4.72
2022-07-26T00:46:37.267Z,4.70
2022-07-26T00:51:42.673Z,5.80
2022-07-26T00:56:54.865Z,5.72
2022-07-26T01:01:59.142Z,5.70
2022-07-26T01:07:15.058Z,6.35
2022-07-26T01:12:19.717Z,4.90
2022-07-26T01:17:23.608Z,4.72
2022-07-26T01:22:28.624Z,4.88
2022-07-26T01:27:34.474Z,4.72
2022-07-26T01:32:39.377Z,4.05
2022-07-26T01:37:44.561Z,3.67
2022-07-26T01:42:48.239Z,4.13
2022-07-26T01:47:52.063Z,4.18
2022-07-26T01:52:57.137Z,5.20
2022-07-26T01:58:00.805Z,4.93
2022-07-26T02:03:04.780Z,5.30
2022-07-26T02:08:09.808Z,5.00
2022-07-26T02:13:14.531Z,4.57
2022-07-26T02:18:18.603Z,4.55
2022-07-26T02:23:24.230Z,4.40
2022-07-26T02:28:28.162Z,4.32
2022-07-26T02:33:31.735Z,4.20
2022-07-26T02:38:36.761Z,4.25
2022-07-26T02:43:40.404Z,5.20
2022-07-26T02:48:44.226Z,5.68
2022-07-26T02:53:49.372Z,5.43
2022-07-26T02:58:53.294Z,7.60
2022-07-26T03:03:59.671Z,6.90
2022-07-26T03:09:08.009Z,7.05
2022-07-26T03:14:15.093Z,7.13
2022-07-26T03:19:25.017Z,6.03
2022-07-26T03:24:34.249Z,5.90
2022-07-26T03:29:41.619Z,5.10
2022-07-26T03:34:48.591Z,5.13
2022-07-26T03:39:56.924Z,5.43
2022-07-26T03:45:05.659Z,6.10
2022-07-26T03:50:14.183Z,4.97
2022-07-26T03:55:39.616Z,4.50
2022-07-26T04:00:46.778Z,4.63
2022-07-26T04:05:54.064Z,4.28
2022-07-26T04:11:04.558Z,4.63
2022-07-26T04:16:11.826Z,5.20
2022-07-26T04:21:18.669Z,5.43
2022-07-26T04:26:26.986Z,5.35
2022-07-26T04:31:36.259Z,4.80
2022-07-26T04:36:43.604Z,4.80
2022-07-26T04:41:52.220Z,4.82
2022-07-26T04:46:59.473Z,4.90
2022-07-26T04:52:06.415Z,4.90
2022-07-26T04:57:14.838Z,5.05
2022-07-26T05:02:21.980Z,4.85
2022-07-26T05:07:29.083Z,4.43
2022-07-26T05:12:37.396Z,4.50
2022-07-26T05:17:45.729Z,5.00
2022-07-26T05:22:52.638Z,4.55
2022-07-26T05:28:01.237Z,4.63
2022-07-26T05:33:08.324Z,5.32
2022-07-26T05:38:15.397Z,5.57
2022-07-26T05:43:22.878Z,5.00
2022-07-26T05:48:29.901Z,4.90
2022-07-26T05:53:37.075Z,5.28
2022-07-26T05:58:45.902Z,5.30
2022-07-26T06:03:52.830Z,5.97
2022-07-26T06:08:59.680Z,6.15
2022-07-26T06:14:08.373Z,4.85
2022-07-26T06:19:15.906Z,6.35
2022-07-26T06:24:24.388Z,4.35
2022-07-26T06:29:32.777Z,4.10
2022-07-26T06:34:40.189Z,5.65
2022-07-26T06:39:47.088Z,5.63
2022-07-26T06:44:55.605Z,9.43
2022-07-26T06:50:02.622Z,3.97
2022-07-26T06:55:12.540Z,4.50
2022-07-26T07:00:21.862Z,3.83
2022-07-26T07:05:31.212Z,3.90
2022-07-26T07:10:38.531Z,4.03
2022-07-26T07:15:45.728Z,3.80
2022-07-26T07:20:51.868Z,3.70
2022-07-26T07:25:56.767Z,3.75
2022-07-26T07:31:03.873Z,3.88
2022-07-26T07:36:09.502Z,4.93
2022-07-26T07:41:15.966Z,3.88
2022-07-26T07:46:24.742Z,3.78
2022-07-26T07:51:33.033Z,4.97
2022-07-26T07:56:43.805Z,6.20
2022-07-26T08:01:52.620Z,3.85
2022-07-26T08:06:59.772Z,3.33
2022-07-26T08:12:06.646Z,4.10
2022-07-26T08:17:15.637Z,4.00
2022-07-26T08:22:22.498Z,4.60
2022-07-26T08:27:29.958Z,4.50
2022-07-26T08:32:37.983Z,4.93
2022-07-26T08:37:44.887Z,4.13
2022-07-26T08:42:52.803Z,4.15
2022-07-26T08:48:18.794Z,4.22
2022-07-26T08:53:26.618Z,3.90
2022-07-26T08:58:36.006Z,4.22
2022-07-26T09:03:44.647Z,4.25
2022-07-26T09:08:53.977Z,4.13
2022-07-26T09:14:03.231Z,4.55
2022-07-26T09:19:24.279Z,4.43
2022-07-26T09:24:35.889Z,4.53
2022-07-26T09:29:50.496Z,4.32
2022-07-26T09:35:37.037Z,4.30
2022-07-26T09:40:38.707Z,4.50
2022-07-26T09:45:44.499Z,4.97
2022-07-26T09:50:51.913Z,4.90
2022-07-26T09:55:58.117Z,5.20
2022-07-26T10:01:02.618Z,5.25
2022-07-26T10:06:08.004Z,5.60
2022-07-26T10:11:14.541Z,6.25
2022-07-26T10:16:33.806Z,6.93
2022-07-26T10:21:42.259Z,6.10
2022-07-26T10:26:49.266Z,5.95
2022-07-26T10:32:21.920Z,6.10
2022-07-26T10:37:30.882Z,6.50
2022-07-26T10:42:46.853Z,7.15
2022-07-26T10:48:17.191Z,6.82
2022-07-26T10:53:27.873Z,7.05
2022-07-26T10:58:45.054Z,7.78
2022-07-26T11:03:52.077Z,7.53
2022-07-26T11:09:01.075Z,8.23
2022-07-26T11:14:09.784Z,8.98
2022-07-26T11:19:18.661Z,9.25
2022-07-26T11:24:27.628Z,9.85
2022-07-26T11:29:38.471Z,9.77
2022-07-26T11:34:48.875Z,8.63
2022-07-26T11:39:57.279Z,16.42
2022-07-26T11:45:04.480Z,8.55
2022-07-26T11:50:18.256Z,8.13
2022-07-26T11:55:31.909Z,15.38
2022-07-26T12:00:39.094Z,7.72
2022-07-26T12:06:03.285Z,8.70
2022-07-26T12:11:12.480Z,16.20
2022-07-26T12:16:41.175Z,23.63
2022-07-26T12:21:50.266Z,9.32
2022-07-26T12:27:09.616Z,9.27
2022-07-26T12:32:18.419Z,10.07
2022-07-26T12:37:37.694Z,10.98
2022-07-26T12:43:01.169Z,29.63
2022-07-26T12:48:11.107Z,11.90
2022-07-26T12:53:15.429Z,14.43
2022-07-26T12:58:22.887Z,12.23
2022-07-26T13:03:29.756Z,10.95
2022-07-26T13:08:37.726Z,11.55
2022-07-26T13:13:45.517Z,11.57
2022-07-26T13:18:52.004Z,10.73
2022-07-26T13:23:59.720Z,9.95
2022-07-26T13:29:08.206Z,10.55
2022-07-26T13:34:15.865Z,10.85
2022-07-26T13:39:22.510Z,11.40
2022-07-26T13:44:30.909Z,12.05
2022-07-26T13:49:38.068Z,12.55
2022-07-26T13:54:45.127Z,11.60
2022-07-26T13:59:53.733Z,11.18
2022-07-26T14:05:05.294Z,11.85
2022-07-26T14:10:16.567Z,11.25
2022-07-26T14:21:16.608Z,12.90
2022-07-26T14:26:23.596Z,13.68
2022-07-26T14:31:33.139Z,16.27
2022-07-26T14:36:39.848Z,16.48
2022-07-26T14:41:47.074Z,18.35
2022-07-26T14:46:55.308Z,18.67
2022-07-26T14:52:03.227Z,18.52
2022-07-26T14:57:10.292Z,19.08
2022-07-26T15:02:19.017Z,20.60
2022-07-26T15:07:26.094Z,18.60
2022-07-26T15:12:34.319Z,19.75
2022-07-26T15:17:42.749Z,20.80
2022-07-26T15:22:49.912Z,19.27
2022-07-26T15:27:56.967Z,19.63
2022-07-26T15:33:05.389Z,20.08
2022-07-26T15:38:11.544Z,19.13
2022-07-26T15:43:23.911Z,20.20
2022-07-26T15:48:51.961Z,19.00
2022-07-26T15:53:59.432Z,20.02
2022-07-26T15:59:07.523Z,18.65
2022-07-26T16:04:15.356Z,19.40
2022-07-26T16:09:22.560Z,19.85
2022-07-26T16:14:29.914Z,18.50
2022-07-26T16:19:38.077Z,20.42
2022-07-26T16:24:45.271Z,18.10
2022-07-26T16:29:52.665Z,18.73
2022-07-26T16:35:01.181Z,16.80
2022-07-26T16:40:09.895Z,16.40
2022-07-26T16:45:18.378Z,17.20
2022-07-26T16:50:27.704Z,15.73
2022-07-26T16:55:34.744Z,17.15
2022-07-26T17:00:41.755Z,15.65
2022-07-26T17:05:49.956Z,15.20
2022-07-26T17:10:57.834Z,14.82
2022-07-26T17:16:05.048Z,15.57
2022-07-26T17:21:13.470Z,13.20
2022-07-26T17:26:21.019Z,15.05
2022-07-26T17:31:27.700Z,13.70
2022-07-26T17:36:36.387Z,14.88
2022-07-26T17:41:47.435Z,9.75
2022-07-26T17:46:57.938Z,7.88
2022-07-26T17:52:07.235Z,7.75
2022-07-26T17:57:14.365Z,7.05
2022-07-26T18:02:20.833Z,7.13
2022-07-26T18:07:29.305Z,6.65
2022-07-26T18:12:36.587Z,6.88
2022-07-26T18:17:41.402Z,6.65
2022-07-26T18:22:50.196Z,6.85
2022-07-26T18:27:54.750Z,6.38
2022-07-26T18:32:59.161Z,6.60
2022-07-26T18:38:04.494Z,5.68
2022-07-26T18:43:08.661Z,5.43
2022-07-26T18:48:12.448Z,4.63
2022-07-26T18:58:25.455Z,4.65
2022-07-26T19:03:34.851Z,4.53
2022-07-26T19:08:40.268Z,5.43
2022-07-26T19:13:43.998Z,5.05
2022-07-26T19:18:50.795Z,5.80
2022-07-26T19:23:57.979Z,6.32
2022-07-26T19:29:01.717Z,5.95
2022-07-26T19:34:05.376Z,5.50
2022-07-26T19:39:10.805Z,5.53
2022-07-26T19:44:14.987Z,6.20
2022-07-26T19:49:18.760Z,5.20
2022-07-26T19:54:23.880Z,5.72
2022-07-26T19:59:28.646Z,4.88
2022-07-26T20:04:32.582Z,5.80
2022-07-26T20:09:37.833Z,5.15
2022-07-26T20:14:41.660Z,5.22
2022-07-26T20:19:45.312Z,5.50
2022-07-26T20:24:55.226Z,5.65
2022-07-26T20:30:01.149Z,4.70
2022-07-26T20:35:05.690Z,5.25
2022-07-26T20:40:12.191Z,4.68
2022-07-26T20:45:16.182Z,5.15
2022-07-26T20:50:20.666Z,5.18
2022-07-26T20:55:25.949Z,6.00
2022-07-26T21:00:29.666Z,5.97
2022-07-26T21:05:33.387Z,5.95
2022-07-26T21:10:38.790Z,5.25
2022-07-26T21:15:42.617Z,6.07
2022-07-26T21:20:47.728Z,5.97
2022-07-26T21:26:00.777Z,6.43
2022-07-26T21:31:08.179Z,6.03
2022-07-26T21:36:11.934Z,6.28
2022-07-26T21:41:17.173Z,5.95
2022-07-26T21:46:20.903Z,5.50
2022-07-26T21:51:24.680Z,5.25
2022-07-26T21:56:29.859Z,6.72
2022-07-26T22:01:33.674Z,6.70
2022-07-26T22:06:38.112Z,6.72
2022-07-26T22:11:43.397Z,6.50
2022-07-26T22:16:47.784Z,7.78
2022-07-26T22:21:51.624Z,7.07
2022-07-26T22:26:56.644Z,8.07
2022-07-26T22:32:00.400Z,8.23
2022-07-26T22:37:04.119Z,9.13
2022-07-26T22:42:16.547Z,9.20
2022-07-26T22:47:20.370Z,9.20
2022-07-26T22:52:24.091Z,9.10
2022-07-26T22:57:29.128Z,10.02
2022-07-26T23:02:36.585Z,9.60
2022-07-26T23:07:40.789Z,9.88
2022-07-26T23:12:46.711Z,11.53
2022-07-26T23:17:50.475Z,12.93
2022-07-26T23:22:54.196Z,13.48
2022-07-26T23:27:59.617Z,12.85
2022-07-26T23:33:03.246Z,12.45
2022-07-26T23:38:06.836Z,14.13
2022-07-26T23:43:11.962Z,16.02
2022-07-26T23:48:15.691Z,16.90
2022-07-26T23:53:19.477Z,17.83
2022-07-26T23:58:31.855Z,15.18
